sensor_id;sensor_type;location;lat;lon;timestamp;P1;durP1;ratioP1;P2;durP2;ratioP2
43226;SDS011;28839;52.404;9.808;2022-10-17T00:01:37;8.38;;;7.43;;
43226;SDS011;28839;52.404;9.808;2022-10-17T00:08:31;9.65;;;4.97;;
43226;SDS011;28839;52.404;9.808;2022-10-17T00:15:25;7.83;;;5.07;;
43226;SDS011;28839;52.404;9.808;2022-10-17T00:22:20;65.70;;;61.60;;
43226;SDS011;28839;52.404;9.808;2022-10-17T00:29:14;12.57;;;7.87;;
43226;SDS011;28839;52.404;9.808;2022-10-17T00:36:10;14.63;;;7.40;;
43226;SDS011;28839;52.404;9.808;2022-10-17T00:43:10;14.25;;;9.95;;
43226;SDS011;28839;52.404;9.808;2022-10-17T00:50:08;11.75;;;10.32;;
43226;SDS011;28839;52.404;9.808;2022-10-17T00:57:04;23.08;;;20.50;;
43226;SDS011;28839;52.404;9.808;2022-10-17T01:04:00;223.07;;;206.38;;
43226;SDS011;28839;52.404;9.808;2022-10-17T01:10:56;45.95;;;22.25;;
43226;SDS011;28839;52.404;9.808;2022-10-17T01:18:00;265.00;;;243.73;;
43226;SDS011;28839;52.404;9.808;2022-10-17T01:25:19;700.40;;;594.83;;
43226;SDS011;28839;52.404;9.808;2022-10-17T01:32:23;526.40;;;468.17;;
43226;SDS011;28839;52.404;9.808;2022-10-17T01:39:27;622.40;;;555.87;;
43226;SDS011;28839;52.404;9.808;2022-10-17T01:46:27;734.87;;;606.80;;
43226;SDS011;28839;52.404;9.808;2022-10-17T01:53:28;438.92;;;389.87;;
43226;SDS011;28839;52.404;9.808;2022-10-17T02:00:25;274.08;;;252.50;;
43226;SDS011;28839;52.404;9.808;2022-10-17T02:07:21;551.87;;;416.52;;
43226;SDS011;28839;52.404;9.808;2022-10-17T02:14:20;245.53;;;227.90;;
43226;SDS011;28839;52.404;9.808;2022-10-17T02:21:23;289.90;;;267.77;;
43226;SDS011;28839;52.404;9.808;2022-10-17T02:28:25;477.13;;;427.50;;
43226;SDS011;28839;52.404;9.808;2022-10-17T02:35:27;475.48;;;429.98;;
43226;SDS011;28839;52.404;9.808;2022-10-17T02:42:24;521.75;;;474.88;;
43226;SDS011;28839;52.404;9.808;2022-10-17T02:49:21;592.17;;;524.88;;
43226;SDS011;28839;52.404;9.808;2022-10-17T02:56:19;625.42;;;565.62;;
43226;SDS011;28839;52.404;9.808;2022-10-17T03:03:17;598.15;;;538.33;;
43226;SDS011;28839;52.404;9.808;2022-10-17T03:10:12;546.33;;;495.40;;
43226;SDS011;28839;52.404;9.808;2022-10-17T03:17:08;483.87;;;436.33;;
43226;SDS011;28839;52.404;9.808;2022-10-17T03:24:02;437.92;;;405.55;;
43226;SDS011;28839;52.404;9.808;2022-10-17T03:30:56;437.85;;;407.38;;
43226;SDS011;28839;52.404;9.808;2022-10-17T03:37:51;526.40;;;474.87;;
43226;SDS011;28839;52.404;9.808;2022-10-17T03:44:47;376.35;;;354.50;;
43226;SDS011;28839;52.404;9.808;2022-10-17T03:51:40;419.33;;;393.27;;
43226;SDS011;28839;52.404;9.808;2022-10-17T03:58:36;235.38;;;222.75;;
43226;SDS011;28839;52.404;9.808;2022-10-17T04:05:29;278.80;;;264.17;;
43226;SDS011;28839;52.404;9.808;2022-10-17T04:12:23;358.75;;;335.08;;
43226;SDS011;28839;52.404;9.808;2022-10-17T04:19:18;74.75;;;70.43;;
43226;SDS011;28839;52.404;9.808;2022-10-17T04:26:12;130.30;;;123.45;;
43226;SDS011;28839;52.404;9.808;2022-10-17T04:33:06;77.18;;;72.87;;
43226;SDS011;28839;52.404;9.808;2022-10-17T04:40:02;53.30;;;50.28;;
43226;SDS011;28839;52.404;9.808;2022-10-17T04:46:56;99.10;;;93.62;;
43226;SDS011;28839;52.404;9.808;2022-10-17T04:53:50;32.70;;;29.60;;
43226;SDS011;28839;52.404;9.808;2022-10-17T05:00:45;45.83;;;42.40;;
43226;SDS011;28839;52.404;9.808;2022-10-17T05:07:39;20.65;;;11.85;;
43226;SDS011;28839;52.404;9.808;2022-10-17T05:14:33;19.10;;;10.70;;
43226;SDS011;28839;52.404;9.808;2022-10-17T05:21:28;12.77;;;8.15;;
43226;SDS011;28839;52.404;9.808;2022-10-17T05:28:22;11.50;;;8.43;;
43226;SDS011;28839;52.404;9.808;2022-10-17T05:35:16;10.20;;;8.70;;
43226;SDS011;28839;52.404;9.808;2022-10-17T05:42:11;9.20;;;8.30;;
43226;SDS011;28839;52.404;9.808;2022-10-17T05:49:05;9.73;;;7.03;;
43226;SDS011;28839;52.404;9.808;2022-10-17T05:56:03;8.05;;;5.22;;
43226;SDS011;28839;52.404;9.808;2022-10-17T06:03:00;8.32;;;5.95;;
43226;SDS011;28839;52.404;9.808;2022-10-17T06:09:54;10.30;;;5.65;;
43226;SDS011;28839;52.404;9.808;2022-10-17T06:16:50;7.07;;;5.07;;
43226;SDS011;28839;52.404;9.808;2022-10-17T06:23:46;13.77;;;5.78;;
43226;SDS011;28839;52.404;9.808;2022-10-17T06:30:40;6.00;;;4.32;;
43226;SDS011;28839;52.404;9.808;2022-10-17T06:37:34;7.47;;;4.70;;
43226;SDS011;28839;52.404;9.808;2022-10-17T06:44:29;7.70;;;4.35;;
43226;SDS011;28839;52.404;9.808;2022-10-17T06:51:23;5.10;;;4.60;;
43226;SDS011;28839;52.404;9.808;2022-10-17T06:58:17;7.57;;;6.20;;
43226;SDS011;28839;52.404;9.808;2022-10-17T07:05:12;9.90;;;8.13;;
43226;SDS011;28839;52.404;9.808;2022-10-17T07:12:06;156.15;;;149.00;;
43226;SDS011;28839;52.404;9.808;2022-10-17T07:19:00;561.83;;;507.33;;
43226;SDS011;28839;52.404;9.808;2022-10-17T07:25:59;416.83;;;396.48;;
43226;SDS011;28839;52.404;9.808;2022-10-17T07:32:54;858.10;;;794.88;;
43226;SDS011;28839;52.404;9.808;2022-10-17T07:39:48;958.70;;;856.73;;
43226;SDS011;28839;52.404;9.808;2022-10-17T07:46:43;1999.90;;;999.90;;
43226;SDS011;28839;52.404;9.808;2022-10-17T07:53:38;178.60;;;162.18;;
43226;SDS011;28839;52.404;9.808;2022-10-17T08:00:34;224.23;;;209.90;;
43226;SDS011;28839;52.404;9.808;2022-10-17T08:07:29;4.28;;;3.67;;
43226;SDS011;28839;52.404;9.808;2022-10-17T08:14:23;236.62;;;105.97;;
43226;SDS011;28839;52.404;9.808;2022-10-17T08:21:17;7.45;;;3.78;;
43226;SDS011;28839;52.404;9.808;2022-10-17T08:28:13;3.97;;;2.95;;
43226;SDS011;28839;52.404;9.808;2022-10-17T08:35:07;5.30;;;3.60;;
43226;SDS011;28839;52.404;9.808;2022-10-17T08:42:09;4.95;;;2.95;;
43226;SDS011;28839;52.404;9.808;2022-10-17T08:49:38;3.62;;;3.17;;
43226;SDS011;28839;52.404;9.808;2022-10-17T08:56:39;2.83;;;2.53;;
43226;SDS011;28839;52.404;9.808;2022-10-17T09:03:42;5.82;;;3.42;;
43226;SDS011;28839;52.404;9.808;2022-10-17T09:10:48;6.30;;;3.28;;
43226;SDS011;28839;52.404;9.808;2022-10-17T09:17:50;8.97;;;3.40;;
43226;SDS011;28839;52.404;9.808;2022-10-17T09:24:48;7.62;;;3.80;;
43226;SDS011;28839;52.404;9.808;2022-10-17T09:31:48;5.80;;;3.47;;
43226;SDS011;28839;52.404;9.808;2022-10-17T09:38:47;6.20;;;3.17;;
43226;SDS011;28839;52.404;9.808;2022-10-17T09:45:45;5.25;;;2.80;;
43226;SDS011;28839;52.404;9.808;2022-10-17T09:52:45;3.95;;;2.67;;
43226;SDS011;28839;52.404;9.808;2022-10-17T09:59:42;5.03;;;2.65;;
43226;SDS011;28839;52.404;9.808;2022-10-17T10:06:37;2.87;;;2.67;;
43226;SDS011;28839;52.404;9.808;2022-10-17T10:13:33;4.00;;;2.60;;
43226;SDS011;28839;52.404;9.808;2022-10-17T10:20:29;4.75;;;3.12;;
43226;SDS011;28839;52.404;9.808;2022-10-17T10:27:25;6.72;;;3.05;;
43226;SDS011;28839;52.404;9.808;2022-10-17T10:34:23;6.12;;;2.72;;
43226;SDS011;28839;52.404;9.808;2022-10-17T10:41:19;5.78;;;3.10;;
43226;SDS011;28839;52.404;9.808;2022-10-17T10:55:19;7.45;;;2.80;;
43226;SDS011;28839;52.404;9.808;2022-10-17T11:02:20;5.65;;;3.00;;
43226;SDS011;28839;52.404;9.808;2022-10-17T11:09:23;6.35;;;2.95;;
43226;SDS011;28839;52.404;9.808;2022-10-17T11:16:26;5.43;;;2.70;;
43226;SDS011;28839;52.404;9.808;2022-10-17T11:23:27;5.12;;;2.85;;
43226;SDS011;28839;52.404;9.808;2022-10-17T11:30:27;5.90;;;2.67;;
43226;SDS011;28839;52.404;9.808;2022-10-17T11:37:32;5.50;;;2.65;;
43226;SDS011;28839;52.404;9.808;2022-10-17T11:44:30;8.93;;;2.72;;
43226;SDS011;28839;52.404;9.808;2022-10-17T11:51:27;6.20;;;3.00;;
43226;SDS011;28839;52.404;9.808;2022-10-17T11:58:29;9.98;;;3.15;;
43226;SDS011;28839;52.404;9.808;2022-10-17T12:05:32;5.57;;;2.90;;
43226;SDS011;28839;52.404;9.808;2022-10-17T12:12:32;4.10;;;2.72;;
43226;SDS011;28839;52.404;9.808;2022-10-17T12:19:33;4.87;;;2.67;;
43226;SDS011;28839;52.404;9.808;2022-10-17T12:26:28;4.45;;;2.95;;
43226;SDS011;28839;52.404;9.808;2022-10-17T12:33:25;6.20;;;2.95;;
43226;SDS011;28839;52.404;9.808;2022-10-17T12:47:53;5.93;;;2.78;;
43226;SDS011;28839;52.404;9.808;2022-10-17T12:54:50;6.40;;;2.90;;
43226;SDS011;28839;52.404;9.808;2022-10-17T13:02:00;4.07;;;2.70;;
43226;SDS011;28839;52.404;9.808;2022-10-17T13:08:57;3.20;;;2.42;;
43226;SDS011;28839;52.404;9.808;2022-10-17T13:15:53;7.07;;;3.90;;
43226;SDS011;28839;52.404;9.808;2022-10-17T13:22:49;4.55;;;2.55;;
43226;SDS011;28839;52.404;9.808;2022-10-17T13:29:43;11.68;;;3.12;;
43226;SDS011;28839;52.404;9.808;2022-10-17T13:43:32;7.40;;;3.40;;
43226;SDS011;28839;52.404;9.808;2022-10-17T13:50:28;6.35;;;3.33;;
43226;SDS011;28839;52.404;9.808;2022-10-17T13:57:26;9.52;;;3.50;;
43226;SDS011;28839;52.404;9.808;2022-10-17T14:04:23;6.95;;;3.50;;
43226;SDS011;28839;52.404;9.808;2022-10-17T14:11:20;7.45;;;3.50;;
43226;SDS011;28839;52.404;9.808;2022-10-17T14:18:19;6.43;;;3.10;;
43226;SDS011;28839;52.404;9.808;2022-10-17T14:25:27;9.18;;;3.78;;
43226;SDS011;28839;52.404;9.808;2022-10-17T14:32:22;8.13;;;4.03;;
43226;SDS011;28839;52.404;9.808;2022-10-17T14:39:17;4.97;;;3.67;;
43226;SDS011;28839;52.404;9.808;2022-10-17T14:46:14;8.23;;;3.92;;
43226;SDS011;28839;52.404;9.808;2022-10-17T14:53:18;11.55;;;3.80;;
43226;SDS011;28839;52.404;9.808;2022-10-17T15:00:14;9.02;;;4.20;;
43226;SDS011;28839;52.404;9.808;2022-10-17T15:07:10;7.53;;;4.30;;
43226;SDS011;28839;52.404;9.808;2022-10-17T15:14:06;6.12;;;4.12;;
43226;SDS011;28839;52.404;9.808;2022-10-17T15:21:00;8.10;;;4.40;;
43226;SDS011;28839;52.404;9.808;2022-10-17T15:27:55;8.07;;;3.85;;
43226;SDS011;28839;52.404;9.808;2022-10-17T15:34:50;10.90;;;4.30;;
43226;SDS011;28839;52.404;9.808;2022-10-17T15:41:44;7.72;;;4.95;;
43226;SDS011;28839;52.404;9.808;2022-10-17T15:48:40;10.40;;;4.30;;
43226;SDS011;28839;52.404;9.808;2022-10-17T15:55:34;11.10;;;4.97;;
43226;SDS011;28839;52.404;9.808;2022-10-17T16:09:23;8.68;;;4.25;;
43226;SDS011;28839;52.404;9.808;2022-10-17T16:16:17;9.05;;;4.30;;
43226;SDS011;28839;52.404;9.808;2022-10-17T16:23:12;5.62;;;3.90;;
43226;SDS011;28839;52.404;9.808;2022-10-17T16:30:08;9.07;;;4.28;;
43226;SDS011;28839;52.404;9.808;2022-10-17T16:37:02;7.32;;;4.40;;
43226;SDS011;28839;52.404;9.808;2022-10-17T16:50:52;6.62;;;4.32;;
43226;SDS011;28839;52.404;9.808;2022-10-17T16:57:46;7.75;;;5.12;;
43226;SDS011;28839;52.404;9.808;2022-10-17T17:04:40;7.03;;;5.07;;
43226;SDS011;28839;52.404;9.808;2022-10-17T17:11:36;6.78;;;4.78;;
43226;SDS011;28839;52.404;9.808;2022-10-17T17:18:30;9.85;;;4.93;;
43226;SDS011;28839;52.404;9.808;2022-10-17T17:25:24;8.65;;;5.53;;
43226;SDS011;28839;52.404;9.808;2022-10-17T17:32:19;15.45;;;6.05;;
43226;SDS011;28839;52.404;9.808;2022-10-17T17:39:14;10.90;;;5.60;;
43226;SDS011;28839;52.404;9.808;2022-10-17T17:46:08;11.18;;;6.57;;
43226;SDS011;28839;52.404;9.808;2022-10-17T17:53:03;9.13;;;5.65;;
43226;SDS011;28839;52.404;9.808;2022-10-17T17:59:58;13.20;;;6.03;;
43226;SDS011;28839;52.404;9.808;2022-10-17T18:06:52;12.40;;;5.82;;
43226;SDS011;28839;52.404;9.808;2022-10-17T18:13:51;14.27;;;6.40;;
43226;SDS011;28839;52.404;9.808;2022-10-17T18:20:45;13.35;;;7.32;;
43226;SDS011;28839;52.404;9.808;2022-10-17T18:27:39;10.10;;;5.95;;
43226;SDS011;28839;52.404;9.808;2022-10-17T18:34:35;9.98;;;6.28;;
43226;SDS011;28839;52.404;9.808;2022-10-17T18:41:28;10.65;;;7.05;;
43226;SDS011;28839;52.404;9.808;2022-10-17T18:48:22;10.90;;;7.65;;
43226;SDS011;28839;52.404;9.808;2022-10-17T18:55:18;11.27;;;6.55;;
43226;SDS011;28839;52.404;9.808;2022-10-17T19:02:12;10.68;;;8.23;;
43226;SDS011;28839;52.404;9.808;2022-10-17T19:09:06;14.13;;;8.15;;
43226;SDS011;28839;52.404;9.808;2022-10-17T19:16:05;17.30;;;8.45;;
43226;SDS011;28839;52.404;9.808;2022-10-17T19:22:59;9.25;;;8.25;;
43226;SDS011;28839;52.404;9.808;2022-10-17T19:29:54;12.00;;;8.88;;
43226;SDS011;28839;52.404;9.808;2022-10-17T19:36:49;12.02;;;8.93;;
43226;SDS011;28839;52.404;9.808;2022-10-17T19:43:43;9.77;;;7.70;;
43226;SDS011;28839;52.404;9.808;2022-10-17T19:50:37;8.27;;;7.10;;
43226;SDS011;28839;52.404;9.808;2022-10-17T19:57:37;12.60;;;7.85;;
43226;SDS011;28839;52.404;9.808;2022-10-17T20:04:31;9.55;;;7.40;;
43226;SDS011;28839;52.404;9.808;2022-10-17T20:11:25;10.57;;;7.80;;
43226;SDS011;28839;52.404;9.808;2022-10-17T20:18:21;11.90;;;7.68;;
43226;SDS011;28839;52.404;9.808;2022-10-17T20:25:16;12.68;;;8.07;;
43226;SDS011;28839;52.404;9.808;2022-10-17T20:32:10;8.85;;;7.53;;
43226;SDS011;28839;52.404;9.808;2022-10-17T20:39:05;10.32;;;8.15;;
43226;SDS011;28839;52.404;9.808;2022-10-17T20:46:00;13.32;;;8.13;;
43226;SDS011;28839;52.404;9.808;2022-10-17T20:52:54;11.60;;;7.78;;
43226;SDS011;28839;52.404;9.808;2022-10-17T20:59:49;14.83;;;8.67;;
43226;SDS011;28839;52.404;9.808;2022-10-17T21:06:43;12.35;;;8.55;;
43226;SDS011;28839;52.404;9.808;2022-10-17T21:13:38;10.20;;;7.75;;
43226;SDS011;28839;52.404;9.808;2022-10-17T21:34:21;12.18;;;9.27;;
43226;SDS011;28839;52.404;9.808;2022-10-17T21:41:17;11.70;;;9.10;;
43226;SDS011;28839;52.404;9.808;2022-10-17T21:48:13;11.48;;;10.27;;
43226;SDS011;28839;52.404;9.808;2022-10-17T21:55:07;11.82;;;10.63;;
43226;SDS011;28839;52.404;9.808;2022-10-17T22:02:02;17.30;;;13.93;;
43226;SDS011;28839;52.404;9.808;2022-10-17T22:08:56;13.85;;;11.12;;
43226;SDS011;28839;52.404;9.808;2022-10-17T22:15:50;16.50;;;11.50;;
43226;SDS011;28839;52.404;9.808;2022-10-17T22:22:45;15.00;;;11.50;;
43226;SDS011;28839;52.404;9.808;2022-10-17T22:29:39;15.63;;;12.10;;
43226;SDS011;28839;52.404;9.808;2022-10-17T22:36:33;13.77;;;12.27;;
43226;SDS011;28839;52.404;9.808;2022-10-17T22:43:29;15.05;;;12.57;;
43226;SDS011;28839;52.404;9.808;2022-10-17T22:50:23;17.00;;;12.60;;
43226;SDS011;28839;52.404;9.808;2022-10-17T22:57:17;32.55;;;30.02;;
43226;SDS011;28839;52.404;9.808;2022-10-17T23:04:12;16.98;;;13.43;;
43226;SDS011;28839;52.404;9.808;2022-10-17T23:11:06;47.35;;;44.17;;
43226;SDS011;28839;52.404;9.808;2022-10-17T23:18:01;17.02;;;13.90;;
43226;SDS011;28839;52.404;9.808;2022-10-17T23:24:57;36.90;;;34.00;;
43226;SDS011;28839;52.404;9.808;2022-10-17T23:31:52;19.30;;;14.90;;
43226;SDS011;28839;52.404;9.808;2022-10-17T23:38:47;21.50;;;16.55;;
43226;SDS011;28839;52.404;9.808;2022-10-17T23:45:42;23.95;;;19.40;;
43226;SDS011;28839;52.404;9.808;2022-10-17T23:52:36;23.42;;;20.70;;
43226;SDS011;28839;52.404;9.808;2022-10-17T23:59:30;564.70;;;513.20;;
